createdAt,value
2019-01-03T00:00:06.713Z,4.30
2019-01-03T00:02:53.532Z,5.10
2019-01-03T00:05:40.583Z,4.10
2019-01-03T00:08:27.582Z,4.47
2019-01-03T00:11:14.675Z,5.63
2019-01-03T00:14:00.221Z,7.10
2019-01-03T00:16:47.029Z,6.47
2019-01-03T00:19:26.083Z,6.80
2019-01-03T00:22:13.214Z,6.93
2019-01-03T00:25:00.612Z,9.23
2019-01-03T00:27:47.750Z,9.80
2019-01-03T00:30:34.874Z,9.90
2019-01-03T00:33:21.969Z,9.17
2019-01-03T00:36:08.765Z,8.90
2019-01-03T00:38:48.141Z,8.63
2019-01-03T00:41:34.994Z,8.63
2019-01-03T00:44:22.062Z,7.47
2019-01-03T00:47:09.085Z,8.30
2019-01-03T00:49:55.883Z,7.40
2019-01-03T00:52:43.005Z,8.00
2019-01-03T00:55:29.778Z,6.97
2019-01-03T00:58:16.946Z,7.57
2019-01-03T01:01:03.976Z,7.63
2019-01-03T01:03:51.009Z,6.50
2019-01-03T01:06:38.108Z,6.97
2019-01-03T01:12:32.806Z,7.20
2019-01-03T01:15:19.570Z,6.40
2019-01-03T01:18:06.358Z,7.20
2019-01-03T01:21:02.115Z,7.03
2019-01-03T01:23:49.506Z,6.40
2019-01-03T01:26:36.264Z,6.50
2019-01-03T01:29:23.397Z,5.93
2019-01-03T01:32:04.305Z,6.33
2019-01-03T01:34:51.349Z,6.10
2019-01-03T01:37:38.358Z,4.97
2019-01-03T01:43:03.337Z,5.60
2019-01-03T01:45:50.633Z,5.33
2019-01-03T01:48:37.652Z,5.40
2019-01-03T01:51:25.235Z,5.43
2019-01-03T01:54:12.582Z,5.57
2019-01-03T01:56:59.354Z,6.60
2019-01-03T01:59:46.142Z,6.47
2019-01-03T02:02:32.909Z,5.90
2019-01-03T02:05:20.323Z,6.50
2019-01-03T02:08:07.366Z,6.17
2019-01-03T02:10:54.374Z,5.80
2019-01-03T02:13:41.391Z,5.53
2019-01-03T02:16:28.780Z,5.50
2019-01-03T02:19:15.841Z,5.60
2019-01-03T02:22:02.617Z,4.93
2019-01-03T02:24:49.405Z,5.43
2019-01-03T02:27:36.185Z,5.57
2019-01-03T02:30:23.024Z,5.40
2019-01-03T02:33:10.046Z,5.30
2019-01-03T02:35:56.821Z,5.27
2019-01-03T02:38:43.938Z,5.40
2019-01-03T02:41:30.721Z,5.07
2019-01-03T02:44:12.438Z,5.40
2019-01-03T02:46:59.461Z,5.33
2019-01-03T02:49:46.297Z,5.30
2019-01-03T02:52:33.685Z,5.30
2019-01-03T02:55:20.696Z,5.93
2019-01-03T02:58:07.829Z,5.87
2019-01-03T03:00:54.940Z,6.00
2019-01-03T03:03:32.534Z,5.90
2019-01-03T03:06:19.298Z,5.97
2019-01-03T03:08:57.553Z,5.93
2019-01-03T03:11:43.863Z,5.67
2019-01-03T03:14:30.643Z,5.60
2019-01-03T03:17:17.424Z,5.47
2019-01-03T03:20:04.215Z,5.67
2019-01-03T03:22:50.985Z,5.87
2019-01-03T03:28:45.857Z,5.87
2019-01-03T03:31:33.082Z,5.70
2019-01-03T03:34:20.104Z,6.03
2019-01-03T03:37:06.870Z,5.10
2019-01-03T03:39:53.638Z,6.57
2019-01-03T03:42:40.669Z,6.00
2019-01-03T03:45:17.366Z,5.60
2019-01-03T03:48:04.484Z,5.80
2019-01-03T03:50:51.516Z,6.00
2019-01-03T03:53:38.954Z,5.70
2019-01-03T03:56:25.721Z,5.80
2019-01-03T03:59:12.738Z,5.60
2019-01-03T04:02:00.139Z,5.60
2019-01-03T04:04:46.937Z,6.03
2019-01-03T04:07:33.708Z,5.43
2019-01-03T04:10:21.024Z,5.13
2019-01-03T04:13:07.766Z,5.67
2019-01-03T04:15:54.787Z,5.70
2019-01-03T04:21:49.010Z,5.87
2019-01-03T04:24:36.036Z,5.47
2019-01-03T04:27:22.831Z,5.80
2019-01-03T04:30:09.602Z,6.23
2019-01-03T04:32:56.622Z,5.60
2019-01-03T04:35:43.626Z,5.93
2019-01-03T04:38:30.990Z,5.70
2019-01-03T04:41:17.758Z,5.33
2019-01-03T04:44:05.146Z,5.87
2019-01-03T04:46:51.924Z,5.67
2019-01-03T04:49:38.770Z,5.70
2019-01-03T04:52:20.502Z,5.43
2019-01-03T04:55:07.273Z,5.97
2019-01-03T04:57:54.042Z,6.20
2019-01-03T05:00:40.814Z,6.23
2019-01-03T05:03:28.179Z,6.13
2019-01-03T05:06:10.102Z,6.60
2019-01-03T05:08:52.742Z,6.60
2019-01-03T05:11:39.527Z,6.30
2019-01-03T05:14:26.607Z,6.00
2019-01-03T05:17:13.382Z,5.83
2019-01-03T05:20:00.535Z,6.63
2019-01-03T05:22:47.304Z,6.10
2019-01-03T05:25:34.086Z,6.20
2019-01-03T05:28:21.382Z,5.70
2019-01-03T05:30:58.537Z,6.10
2019-01-03T05:33:45.826Z,6.17
2019-01-03T05:36:32.859Z,5.83
2019-01-03T05:39:20.246Z,5.73
2019-01-03T05:42:07.269Z,6.20
2019-01-03T05:44:54.323Z,6.07
2019-01-03T05:47:35.202Z,5.43
2019-01-03T05:50:21.966Z,5.80
2019-01-03T05:53:09.026Z,6.53
2019-01-03T05:55:56.349Z,6.07
2019-01-03T05:58:43.713Z,5.87
2019-01-03T06:01:30.500Z,5.90
2019-01-03T06:04:17.558Z,6.83
2019-01-03T06:07:04.613Z,6.00
2019-01-03T06:09:51.396Z,5.70
2019-01-03T06:12:38.154Z,6.10
2019-01-03T06:15:25.578Z,6.57
2019-01-03T06:18:12.343Z,6.37
2019-01-03T06:20:59.738Z,6.83
2019-01-03T06:23:46.501Z,6.60
2019-01-03T06:26:33.825Z,6.00
2019-01-03T06:29:21.234Z,5.63
2019-01-03T06:32:08.250Z,5.87
2019-01-03T06:34:55.694Z,6.00
2019-01-03T06:37:42.811Z,6.33
2019-01-03T06:40:29.922Z,6.90
2019-01-03T06:43:16.702Z,6.80
2019-01-03T06:46:03.727Z,6.87
2019-01-03T06:48:50.762Z,6.30
2019-01-03T06:51:37.552Z,6.60
2019-01-03T06:54:24.698Z,6.77
2019-01-03T06:57:11.482Z,7.20
2019-01-03T06:59:58.529Z,6.50
2019-01-03T07:02:45.853Z,6.30
2019-01-03T07:05:32.858Z,6.90
2019-01-03T07:08:19.637Z,6.03
2019-01-03T07:10:58.185Z,6.20
2019-01-03T07:13:45.362Z,5.50
2019-01-03T07:16:32.669Z,7.30
2019-01-03T07:19:19.764Z,7.20
2019-01-03T07:22:06.838Z,5.97
2019-01-03T07:24:53.907Z,6.70
2019-01-03T07:27:40.905Z,6.23
2019-01-03T07:30:28.078Z,6.80
2019-01-03T07:33:15.137Z,6.20
2019-01-03T07:36:01.914Z,5.97
2019-01-03T07:38:48.967Z,6.17
2019-01-03T07:41:36.337Z,6.80
2019-01-03T07:44:23.354Z,6.93
2019-01-03T07:47:10.465Z,6.77
2019-01-03T07:49:57.542Z,7.37
2019-01-03T07:52:44.574Z,6.80
2019-01-03T07:55:32.058Z,6.73
2019-01-03T07:58:18.846Z,5.90
2019-01-03T08:01:05.861Z,6.97
2019-01-03T08:03:52.891Z,6.80
2019-01-03T08:06:39.658Z,6.80
2019-01-03T08:09:27.008Z,6.87
2019-01-03T08:12:13.787Z,6.83
2019-01-03T08:15:00.565Z,6.67
2019-01-03T08:17:47.590Z,6.60
2019-01-03T08:20:34.729Z,6.40
2019-01-03T08:23:21.835Z,6.37
2019-01-03T08:26:09.205Z,6.20
2019-01-03T08:28:56.281Z,6.97
2019-01-03T08:31:43.650Z,6.73
2019-01-03T08:34:30.938Z,6.50
2019-01-03T08:37:17.962Z,6.70
2019-01-03T08:40:04.726Z,6.50
2019-01-03T08:42:51.788Z,6.67
2019-01-03T08:45:38.559Z,7.13
2019-01-03T08:48:25.562Z,6.40
2019-01-03T08:51:12.611Z,6.23
2019-01-03T08:53:59.630Z,6.37
2019-01-03T08:56:46.658Z,7.57
2019-01-03T08:59:33.422Z,6.90
2019-01-03T09:02:20.722Z,7.60
2019-01-03T09:05:08.102Z,7.07
2019-01-03T09:07:54.879Z,7.20
2019-01-03T09:10:42.022Z,7.60
2019-01-03T09:13:29.054Z,11.03
2019-01-03T09:16:15.813Z,11.27
2019-01-03T09:19:02.607Z,17.70
2019-01-03T09:21:49.692Z,11.63
2019-01-03T09:24:36.466Z,8.40
2019-01-03T09:27:23.240Z,7.80
2019-01-03T09:30:10.328Z,8.67
2019-01-03T09:32:57.121Z,9.43
2019-01-03T09:35:43.888Z,11.00
2019-01-03T09:38:30.952Z,9.70
2019-01-03T09:41:18.310Z,8.50
2019-01-03T09:44:05.347Z,8.80
2019-01-03T09:46:33.687Z,8.30
2019-01-03T09:49:01.604Z,9.00
2019-01-03T09:51:29.809Z,17.10
2019-01-03T09:53:57.737Z,13.10
2019-01-03T09:56:25.425Z,9.40
2019-01-03T09:58:53.609Z,8.63
2019-01-03T10:01:21.637Z,12.80
2019-01-03T10:03:49.298Z,14.57
2019-01-03T10:06:17.594Z,9.97
2019-01-03T10:09:04.598Z,9.37
2019-01-03T10:11:51.672Z,9.23
2019-01-03T10:14:19.938Z,8.53
2019-01-03T10:16:47.605Z,8.83
2019-01-03T10:19:15.248Z,8.70
2019-01-03T10:21:43.201Z,10.17
2019-01-03T10:24:11.921Z,9.10
2019-01-03T10:26:39.949Z,12.03
2019-01-03T10:29:08.261Z,11.27
2019-01-03T10:31:36.307Z,11.30
2019-01-03T10:34:04.578Z,9.10
2019-01-03T10:36:32.241Z,9.13
2019-01-03T10:39:00.541Z,8.13
2019-01-03T10:41:28.564Z,8.93
2019-01-03T10:43:56.214Z,8.60
2019-01-03T10:46:24.468Z,9.27
2019-01-03T10:49:11.692Z,9.33
2019-01-03T10:51:39.705Z,9.43
2019-01-03T10:54:07.662Z,9.23
2019-01-03T10:56:35.997Z,9.37
2019-01-03T10:59:04.013Z,9.33
2019-01-03T11:04:18.850Z,10.97
2019-01-03T11:06:47.331Z,10.13
2019-01-03T11:09:15.341Z,11.00
2019-01-03T11:11:43.336Z,10.70
2019-01-03T11:16:58.745Z,11.50
2019-01-03T11:19:26.404Z,13.23
2019-01-03T11:21:54.093Z,11.40
2019-01-03T11:24:21.730Z,11.20
2019-01-03T11:26:49.689Z,11.27
2019-01-03T11:29:17.645Z,12.57
2019-01-03T11:31:45.675Z,11.77
2019-01-03T11:34:33.225Z,11.70
2019-01-03T11:37:01.551Z,12.77
2019-01-03T11:39:29.551Z,12.60
2019-01-03T11:41:57.802Z,13.13
2019-01-03T11:44:25.834Z,13.10
2019-01-03T11:46:53.518Z,12.90
2019-01-03T11:49:21.193Z,13.33
2019-01-03T11:51:48.950Z,13.93
2019-01-03T11:54:16.689Z,14.03
2019-01-03T11:56:45.248Z,13.70
2019-01-03T11:59:13.234Z,13.40
2019-01-03T12:01:41.710Z,13.97
2019-01-03T12:04:09.733Z,13.80
2019-01-03T12:06:37.400Z,13.57
2019-01-03T12:09:05.773Z,14.17
2019-01-03T12:11:33.950Z,14.00
2019-01-03T12:14:02.289Z,13.10
2019-01-03T12:16:30.333Z,13.27
2019-01-03T12:18:58.650Z,13.90
2019-01-03T12:21:27.239Z,13.00
2019-01-03T12:23:55.614Z,13.50
2019-01-03T12:26:24.004Z,13.50
2019-01-03T12:28:51.681Z,13.20
2019-01-03T12:31:19.470Z,13.33
2019-01-03T12:33:47.859Z,13.83
2019-01-03T12:36:15.557Z,14.60
2019-01-03T12:38:43.588Z,14.97
2019-01-03T12:41:11.253Z,14.30
2019-01-03T12:43:38.937Z,15.03
2019-01-03T12:46:07.293Z,14.93
2019-01-03T12:48:35.586Z,14.27
2019-01-03T12:51:03.945Z,14.53
2019-01-03T12:53:31.969Z,14.80
2019-01-03T12:55:59.991Z,14.70
2019-01-03T12:58:27.923Z,13.60
2019-01-03T13:00:56.495Z,13.00
2019-01-03T13:03:24.484Z,12.70
2019-01-03T13:05:52.157Z,12.50
2019-01-03T13:08:20.181Z,12.70
2019-01-03T13:10:47.952Z,12.77
2019-01-03T13:13:16.058Z,13.40
2019-01-03T13:15:44.635Z,12.97
2019-01-03T13:18:12.982Z,12.40
2019-01-03T13:20:40.940Z,12.57
2019-01-03T13:23:09.746Z,12.47
2019-01-03T13:25:38.102Z,12.20
2019-01-03T13:28:06.721Z,12.07
2019-01-03T13:30:34.695Z,12.40
2019-01-03T13:33:02.645Z,12.70
2019-01-03T13:35:30.601Z,13.40
2019-01-03T13:37:58.587Z,12.23
2019-01-03T13:40:26.872Z,12.03
2019-01-03T13:42:55.001Z,11.93
2019-01-03T13:45:22.919Z,12.63
2019-01-03T13:47:50.966Z,12.00
2019-01-03T13:50:18.737Z,11.30
2019-01-03T13:52:47.078Z,10.67
2019-01-03T13:55:15.120Z,11.50
2019-01-03T13:57:43.472Z,9.80
2019-01-03T14:00:11.561Z,9.83
2019-01-03T14:02:39.392Z,10.47
2019-01-03T14:05:07.100Z,10.70
2019-01-03T14:07:34.796Z,10.90
2019-01-03T14:10:02.465Z,10.37
2019-01-03T14:12:30.146Z,10.20
2019-01-03T14:14:57.889Z,10.37
2019-01-03T14:17:26.264Z,9.33
2019-01-03T14:19:54.568Z,9.37
2019-01-03T14:22:22.337Z,12.00
2019-01-03T14:24:50.754Z,9.67
2019-01-03T14:27:19.053Z,9.70
2019-01-03T14:29:47.026Z,8.90
2019-01-03T14:32:15.045Z,8.57
2019-01-03T14:34:43.159Z,8.00
2019-01-03T14:37:11.475Z,7.60
2019-01-03T14:39:39.857Z,8.27
2019-01-03T14:42:08.255Z,7.40
2019-01-03T14:44:36.264Z,8.77
2019-01-03T14:47:04.781Z,7.60
2019-01-03T14:49:33.167Z,7.30
2019-01-03T14:52:01.200Z,8.73
2019-01-03T14:54:29.591Z,8.43
2019-01-03T14:56:57.834Z,8.20
2019-01-03T14:59:26.366Z,12.10
2019-01-03T15:01:54.130Z,9.70
2019-01-03T15:04:21.880Z,15.20
2019-01-03T15:06:49.904Z,11.90
2019-01-03T15:09:17.969Z,12.30
2019-01-03T15:11:46.162Z,7.37
2019-01-03T15:14:14.450Z,7.53
2019-01-03T15:16:42.766Z,8.10
2019-01-03T15:19:10.773Z,7.83
2019-01-03T15:21:39.137Z,8.73
2019-01-03T15:24:07.161Z,8.83
2019-01-03T15:26:35.462Z,9.50
2019-01-03T15:29:03.500Z,10.20
2019-01-03T15:31:31.171Z,9.63
2019-01-03T15:33:58.852Z,10.33
2019-01-03T15:36:27.454Z,10.90
2019-01-03T15:38:55.218Z,9.70
2019-01-03T15:41:23.517Z,11.60
2019-01-03T15:43:51.189Z,10.47
2019-01-03T15:46:19.444Z,9.10
2019-01-03T15:48:47.703Z,9.57
2019-01-03T15:51:15.763Z,9.90
2019-01-03T15:53:44.554Z,8.83
2019-01-03T15:56:12.238Z,9.20
2019-01-03T15:58:39.914Z,9.43
2019-01-03T16:01:08.305Z,11.10
2019-01-03T16:03:36.848Z,10.40
2019-01-03T16:06:05.206Z,9.50
2019-01-03T16:08:33.250Z,9.60
2019-01-03T16:11:01.626Z,9.40
2019-01-03T16:13:29.548Z,8.40
2019-01-03T16:15:57.868Z,9.27
2019-01-03T16:18:25.846Z,8.83
2019-01-03T16:20:54.382Z,8.80
2019-01-03T16:23:22.301Z,8.70
2019-01-03T16:25:50.317Z,9.13
2019-01-03T16:28:18.900Z,9.77
2019-01-03T16:30:47.269Z,10.70
2019-01-03T16:33:15.345Z,10.20
2019-01-03T16:35:47.976Z,9.07
2019-01-03T16:38:13.070Z,8.50
2019-01-03T16:40:41.024Z,9.27
2019-01-03T16:43:09.358Z,7.50
2019-01-03T16:45:37.557Z,7.70
2019-01-03T16:48:05.217Z,6.90
2019-01-03T16:50:33.230Z,6.90
2019-01-03T16:53:00.902Z,7.07
2019-01-03T16:55:29.436Z,7.10
2019-01-03T16:57:57.848Z,7.17
2019-01-03T17:00:25.807Z,5.70
2019-01-03T17:02:53.785Z,5.87
2019-01-03T17:05:22.098Z,4.70
2019-01-03T17:07:50.453Z,5.07
2019-01-03T17:10:18.818Z,5.30
2019-01-03T17:12:46.893Z,5.20
2019-01-03T17:15:14.813Z,5.47
2019-01-03T17:17:42.486Z,5.20
2019-01-03T17:20:10.611Z,28.97
2019-01-03T17:22:38.285Z,14.60
2019-01-03T17:25:07.435Z,7.40
2019-01-03T17:27:35.454Z,6.53
2019-01-03T17:30:03.422Z,6.10
2019-01-03T17:32:31.366Z,6.27
2019-01-03T17:34:59.012Z,4.93
2019-01-03T17:37:27.573Z,4.23
2019-01-03T17:39:55.849Z,3.57
2019-01-03T17:42:23.806Z,4.40
2019-01-03T17:44:51.772Z,4.30
2019-01-03T17:47:20.171Z,4.70
2019-01-03T17:49:48.493Z,4.97
2019-01-03T17:52:16.502Z,4.80
2019-01-03T17:54:44.514Z,9.47
2019-01-03T17:57:12.543Z,6.63
2019-01-03T17:59:40.473Z,7.30
2019-01-03T18:02:08.495Z,5.23
2019-01-03T18:04:37.070Z,4.77
2019-01-03T18:07:05.256Z,10.70
2019-01-03T18:09:33.624Z,7.37
2019-01-03T18:12:01.289Z,9.10
2019-01-03T18:14:29.349Z,8.60
2019-01-03T18:16:57.322Z,15.70
2019-01-03T18:19:25.293Z,7.00
2019-01-03T18:21:53.612Z,6.30
2019-01-03T18:24:21.345Z,5.57
2019-01-03T18:26:49.610Z,7.70
2019-01-03T18:29:17.543Z,7.13
2019-01-03T18:31:46.176Z,5.20
2019-01-03T18:34:14.483Z,6.60
2019-01-03T18:36:42.515Z,5.30
2019-01-03T18:39:10.799Z,5.00
2019-01-03T18:41:39.265Z,4.47
2019-01-03T18:44:07.850Z,4.90
2019-01-03T18:46:35.530Z,4.50
2019-01-03T18:49:03.189Z,5.40
2019-01-03T18:51:31.154Z,4.60
2019-01-03T18:53:58.817Z,5.17
2019-01-03T18:56:26.841Z,5.10
2019-01-03T18:58:55.055Z,5.00
2019-01-03T19:01:23.473Z,4.80
2019-01-03T19:03:51.461Z,8.00
2019-01-03T19:06:20.085Z,8.10
2019-01-03T19:08:48.095Z,11.07
2019-01-03T19:11:16.107Z,8.00
2019-01-03T19:13:44.429Z,6.70
2019-01-03T19:16:12.071Z,7.87
2019-01-03T19:18:39.838Z,6.60
2019-01-03T19:21:07.501Z,7.27
2019-01-03T19:23:35.274Z,6.50
2019-01-03T19:26:03.322Z,7.23
2019-01-03T19:28:31.372Z,8.67
2019-01-03T19:30:59.963Z,7.87
2019-01-03T19:33:28.231Z,8.17
2019-01-03T19:35:56.230Z,7.77
2019-01-03T19:38:23.929Z,7.30
2019-01-03T19:40:52.189Z,7.60
2019-01-03T19:43:20.179Z,7.60
2019-01-03T19:45:47.859Z,8.20
2019-01-03T19:48:15.835Z,7.00
2019-01-03T19:50:43.553Z,7.97
2019-01-03T19:53:11.761Z,7.53
2019-01-03T19:55:39.445Z,7.93
2019-01-03T19:58:07.362Z,7.03
2019-01-03T20:00:35.434Z,7.33
2019-01-03T20:03:03.349Z,8.57
2019-01-03T20:05:31.017Z,7.60
2019-01-03T20:07:58.957Z,9.67
2019-01-03T20:10:26.995Z,7.20
2019-01-03T20:12:55.270Z,7.20
2019-01-03T20:15:23.462Z,7.00
2019-01-03T20:17:51.488Z,6.97
2019-01-03T20:20:19.148Z,6.77
2019-01-03T20:22:47.102Z,7.07
2019-01-03T20:25:14.761Z,7.23
2019-01-03T20:27:42.445Z,7.30
2019-01-03T20:30:10.456Z,8.77
2019-01-03T20:32:38.422Z,9.60
2019-01-03T20:35:06.369Z,8.67
2019-01-03T20:37:34.547Z,8.43
2019-01-03T20:40:02.554Z,9.10
2019-01-03T20:42:31.607Z,9.07
2019-01-03T20:45:00.304Z,9.50
2019-01-03T20:47:28.664Z,9.10
2019-01-03T20:49:56.356Z,10.07
2019-01-03T20:52:24.053Z,9.57
2019-01-03T20:54:51.981Z,9.87
2019-01-03T20:57:19.929Z,10.73
2019-01-03T20:59:48.302Z,9.97
2019-01-03T21:02:16.281Z,10.13
2019-01-03T21:04:44.663Z,9.80
2019-01-03T21:07:12.908Z,11.70
2019-01-03T21:09:41.106Z,11.23
2019-01-03T21:12:09.064Z,11.17
2019-01-03T21:14:37.466Z,11.33
2019-01-03T21:17:05.525Z,11.30
2019-01-03T21:19:36.250Z,11.80
2019-01-03T21:22:03.917Z,12.00
2019-01-03T21:24:32.157Z,11.53
2019-01-03T21:26:59.849Z,11.20
2019-01-03T21:29:28.445Z,11.13
2019-01-03T21:31:56.454Z,11.53
2019-01-03T21:34:24.486Z,10.87
2019-01-03T21:36:52.521Z,10.87
2019-01-03T21:39:20.856Z,10.80
2019-01-03T21:41:49.518Z,10.90
2019-01-03T21:44:17.204Z,11.10
2019-01-03T21:46:45.613Z,11.40
2019-01-03T21:49:13.603Z,10.00
2019-01-03T21:51:41.603Z,11.23
2019-01-03T21:54:09.617Z,10.67
2019-01-03T21:56:37.650Z,10.83
2019-01-03T21:59:05.994Z,10.90
2019-01-03T22:01:33.749Z,10.43
2019-01-03T22:04:01.793Z,10.80
2019-01-03T22:06:30.113Z,11.73
2019-01-03T22:08:58.149Z,12.20
2019-01-03T22:11:26.142Z,11.80
2019-01-03T22:13:54.452Z,11.30
2019-01-03T22:16:22.216Z,11.20
2019-01-03T22:18:50.262Z,11.33
2019-01-03T22:21:18.454Z,11.60
2019-01-03T22:23:46.147Z,12.40
2019-01-03T22:26:14.150Z,12.63
2019-01-03T22:28:42.154Z,13.37
2019-01-03T22:31:10.448Z,11.97
2019-01-03T22:33:38.522Z,12.23
2019-01-03T22:36:06.477Z,11.77
2019-01-03T22:38:34.513Z,11.00
2019-01-03T22:41:02.201Z,11.67
2019-01-03T22:43:30.813Z,10.70
2019-01-03T22:45:59.092Z,11.60
2019-01-03T22:48:26.902Z,10.80
2019-01-03T22:50:55.229Z,10.63
2019-01-03T22:53:23.590Z,11.50
2019-01-03T22:55:51.897Z,12.07
2019-01-03T22:58:19.822Z,11.07
2019-01-03T23:00:49.561Z,11.47
2019-01-03T23:03:17.944Z,11.83
2019-01-03T23:05:46.181Z,11.63
2019-01-03T23:08:14.307Z,12.30
2019-01-03T23:10:41.976Z,12.40
2019-01-03T23:13:09.936Z,13.33
2019-01-03T23:15:37.614Z,12.43
2019-01-03T23:18:05.550Z,12.43
2019-01-03T23:20:33.580Z,12.40
2019-01-03T23:23:01.961Z,12.03
2019-01-03T23:25:30.299Z,11.87
2019-01-03T23:27:58.306Z,12.20
2019-01-03T23:30:26.485Z,12.63
2019-01-03T23:32:54.704Z,13.30
2019-01-03T23:35:23.247Z,12.87
2019-01-03T23:37:50.930Z,13.23
2019-01-03T23:40:19.238Z,12.87
2019-01-03T23:42:47.717Z,13.27
2019-01-03T23:45:16.593Z,13.60
2019-01-03T23:47:44.635Z,14.83
2019-01-03T23:50:13.508Z,13.27
2019-01-03T23:53:00.290Z,13.10
2019-01-03T23:58:36.302Z,13.10
